Time;durP1;ratioP1;P1;durP2;ratioP2;P2;SDS_P1;SDS_P2;PMS_P1;PMS_P2;Temp;Humidity;BMP_temperature;BMP_pressure;BME280_temperature;BME280_humidity;BME280_pressure;Samples;Min_cycle;Max_cycle;Signal;HPM_P1;HPM_P2
2021/08/12 00:02:07;;;;;;;9.70;5.70;;;;;;;;;;5030855;28;20053;-44
2021/08/12 00:04:34;;;;;;;10.32;5.40;;;;;;;;;;5032478;28;20040;-46
2021/08/12 00:07:00;;;;;;;7.43;5.07;;;;;;;;;;5031118;28;20045;-46
2021/08/12 00:09:27;;;;;;;7.93;4.80;;;;;;;;;;5018841;28;20503;-48
2021/08/12 00:11:54;;;;;;;6.93;5.10;;;;;;;;;;5014822;28;20438;-47
2021/08/12 00:14:21;;;;;;;7.93;5.38;;;;;;;;;;5014082;28;20120;-45
2021/08/12 00:16:47;;;;;;;9.15;5.10;;;;;;;;;;5024507;28;20053;-49
2021/08/12 00:19:14;;;;;;;7.55;5.07;;;;;;;;;;5033987;28;20037;-45
2021/08/12 00:21:41;;;;;;;10.10;5.90;;;;;;;;;;5025822;28;20033;-46
2021/08/12 00:24:08;;;;;;;8.90;5.90;;;;;;;;;;5031825;28;20033;-48
2021/08/12 00:26:35;;;;;;;7.60;4.88;;;;;;;;;;5013992;28;20042;-47
2021/08/12 00:29:04;;;;;;;6.82;4.82;;;;;;;;;;5014272;28;20050;-47
2021/08/12 00:31:31;;;;;;;11.82;6.00;;;;;;;;;;5012715;28;20125;-45
2021/08/12 00:33:58;;;;;;;8.82;5.18;;;;;;;;;;5012361;28;20403;-49
2021/08/12 00:36:27;;;;;;;8.57;5.35;;;;;;;;;;5012779;28;20046;-48
2021/08/12 00:39:01;;;;;;;7.45;5.30;;;;;;;;;;5012939;28;20514;-46
2021/08/12 00:41:35;;;;;;;9.15;5.50;;;;;;;;;;5018473;28;20049;-45
2021/08/12 00:44:05;;;;;;;10.07;5.82;;;;;;;;;;5019594;28;20045;-48
2021/08/12 00:46:33;;;;;;;7.82;5.18;;;;;;;;;;5022520;28;20526;-46
2021/08/12 00:49:00;;;;;;;7.45;5.18;;;;;;;;;;5018599;28;20111;-45
2021/08/12 00:51:28;;;;;;;11.43;5.45;;;;;;;;;;5029017;28;20056;-45
2021/08/12 00:53:56;;;;;;;7.30;5.38;;;;;;;;;;5027317;28;20064;-47
2021/08/12 00:56:26;;;;;;;9.35;5.20;;;;;;;;;;5014429;28;20052;-49
2021/08/12 00:58:53;;;;;;;9.85;5.40;;;;;;;;;;5014852;28;20041;-49
2021/08/12 01:01:20;;;;;;;9.45;5.63;;;;;;;;;;5011612;28;20041;-47
2021/08/12 01:03:48;;;;;;;8.88;5.13;;;;;;;;;;5019677;28;20034;-48
2021/08/12 01:06:29;;;;;;;7.03;5.03;;;;;;;;;;5028375;28;20123;-45
2021/08/12 01:09:02;;;;;;;8.48;5.10;;;;;;;;;;5013521;28;20395;-47
2021/08/12 01:11:35;;;;;;;9.18;5.63;;;;;;;;;;5012518;28;20491;-47
2021/08/12 01:14:02;;;;;;;9.13;5.90;;;;;;;;;;5011558;28;20094;-49
2021/08/12 01:16:30;;;;;;;14.02;6.78;;;;;;;;;;5017416;28;20152;-47
2021/08/12 01:19:02;;;;;;;17.55;6.35;;;;;;;;;;5045299;28;20219;-45
2021/08/12 01:21:35;;;;;;;9.73;6.80;;;;;;;;;;5030450;28;20073;-46
2021/08/12 01:24:04;;;;;;;9.48;5.47;;;;;;;;;;5031415;28;20105;-48
2021/08/12 01:26:33;;;;;;;14.10;6.32;;;;;;;;;;5031307;28;20107;-49
2021/08/12 01:29:05;;;;;;;16.17;6.72;;;;;;;;;;5031823;28;20041;-46
2021/08/12 01:31:51;;;;;;;10.38;5.70;;;;;;;;;;5031732;28;20041;-50
2021/08/12 01:34:39;;;;;;;7.78;5.53;;;;;;;;;;5023699;28;20038;-49
2021/08/12 01:37:09;;;;;;;11.65;5.63;;;;;;;;;;5029344;28;20034;-45
2021/08/12 01:39:36;;;;;;;8.10;5.10;;;;;;;;;;5031008;28;20061;-44
2021/08/12 01:42:05;;;;;;;7.82;5.80;;;;;;;;;;5029662;28;20041;-50
2021/08/12 01:44:33;;;;;;;10.32;6.10;;;;;;;;;;5030459;28;20045;-45
2021/08/12 01:47:07;;;;;;;6.65;5.22;;;;;;;;;;5027510;28;20046;-44
2021/08/12 01:49:35;;;;;;;8.15;5.63;;;;;;;;;;5011993;28;20070;-48
2021/08/12 01:52:03;;;;;;;10.20;6.20;;;;;;;;;;5012962;28;20434;-46
2021/08/12 01:54:31;;;;;;;8.07;5.90;;;;;;;;;;5015202;28;20177;-46
2021/08/12 01:56:58;;;;;;;8.00;6.28;;;;;;;;;;5024267;28;20107;-46
2021/08/12 01:59:27;;;;;;;9.40;6.13;;;;;;;;;;5031156;28;20050;-46
2021/08/12 02:01:54;;;;;;;10.48;6.82;;;;;;;;;;5047796;28;20080;-47
2021/08/12 02:04:21;;;;;;;8.85;6.00;;;;;;;;;;5043181;28;20037;-48
2021/08/12 02:06:49;;;;;;;7.88;5.53;;;;;;;;;;5026387;28;20490;-46
2021/08/12 02:09:18;;;;;;;10.50;6.25;;;;;;;;;;5029323;28;20044;-47
2021/08/12 02:11:46;;;;;;;11.63;6.85;;;;;;;;;;5017252;28;20041;-46
2021/08/12 02:14:13;;;;;;;8.35;6.10;;;;;;;;;;5011094;28;20038;-47
2021/08/12 02:16:40;;;;;;;10.80;6.20;;;;;;;;;;5011590;28;20038;-47
2021/08/12 02:19:07;;;;;;;8.43;5.75;;;;;;;;;;5019006;28;20037;-45
2021/08/12 02:21:47;;;;;;;7.70;5.50;;;;;;;;;;5022096;28;20053;-46
2021/08/12 02:24:16;;;;;;;8.05;6.15;;;;;;;;;;5013497;28;20410;-47
2021/08/12 02:26:47;;;;;;;7.82;5.30;;;;;;;;;;5024790;28;20099;-46
2021/08/12 02:29:14;;;;;;;9.52;5.85;;;;;;;;;;5030925;28;20034;-46
2021/08/12 02:31:42;;;;;;;9.85;6.05;;;;;;;;;;5019313;28;20064;-48
2021/08/12 02:34:09;;;;;;;8.73;6.15;;;;;;;;;;5030696;28;20069;-45
2021/08/12 02:36:36;;;;;;;8.07;5.85;;;;;;;;;;5015252;28;20483;-48
2021/08/12 02:39:04;;;;;;;9.77;5.78;;;;;;;;;;5021005;28;20084;-45
2021/08/12 02:41:32;;;;;;;11.63;6.00;;;;;;;;;;5011265;28;20037;-50
2021/08/12 02:43:59;;;;;;;8.25;6.20;;;;;;;;;;5023886;28;20037;-48
2021/08/12 02:46:27;;;;;;;9.13;6.03;;;;;;;;;;5031535;28;20378;-46
2021/08/12 02:48:55;;;;;;;8.88;6.40;;;;;;;;;;5015806;28;20045;-48
2021/08/12 02:51:24;;;;;;;8.85;6.57;;;;;;;;;;5011438;28;20452;-45
2021/08/12 02:53:52;;;;;;;8.35;6.32;;;;;;;;;;5017958;28;20037;-45
2021/08/12 02:56:19;;;;;;;9.82;6.80;;;;;;;;;;5026666;28;20048;-47
2021/08/12 02:58:47;;;;;;;10.50;6.80;;;;;;;;;;5020702;28;20068;-47
2021/08/12 03:01:14;;;;;;;10.77;6.97;;;;;;;;;;5031135;28;20042;-48
2021/08/12 03:03:42;;;;;;;11.25;7.00;;;;;;;;;;5023839;28;20068;-47
2021/08/12 03:06:12;;;;;;;9.57;6.70;;;;;;;;;;5011874;28;20037;-47
2021/08/12 03:08:40;;;;;;;10.35;6.97;;;;;;;;;;5025937;28;20037;-49
2021/08/12 03:11:09;;;;;;;10.40;7.13;;;;;;;;;;5032144;28;20132;-47
2021/08/12 03:13:36;;;;;;;11.30;8.10;;;;;;;;;;5016729;28;20046;-46
2021/08/12 03:16:06;;;;;;;9.98;8.05;;;;;;;;;;5010526;28;20128;-48
2021/08/12 03:18:33;;;;;;;12.18;7.60;;;;;;;;;;5022577;28;20050;-45
2021/08/12 03:21:10;;;;;;;12.05;7.43;;;;;;;;;;5027082;28;20388;-46
2021/08/12 03:23:37;;;;;;;11.52;8.25;;;;;;;;;;5014331;28;20057;-44
2021/08/12 03:26:05;;;;;;;11.77;7.75;;;;;;;;;;5016140;28;20073;-47
2021/08/12 03:28:34;;;;;;;11.40;6.97;;;;;;;;;;5015835;28;20096;-46
2021/08/12 03:31:02;;;;;;;10.77;7.38;;;;;;;;;;5015840;28;20046;-48
2021/08/12 03:33:30;;;;;;;9.20;7.40;;;;;;;;;;5025882;28;20049;-47
2021/08/12 03:35:57;;;;;;;11.27;7.32;;;;;;;;;;5034560;28;20042;-49
2021/08/12 03:38:25;;;;;;;11.82;7.78;;;;;;;;;;5022059;28;20068;-46
2021/08/12 03:40:51;;;;;;;10.43;7.15;;;;;;;;;;5034501;28;20038;-46
2021/08/12 03:43:18;;;;;;;11.18;8.23;;;;;;;;;;5035656;28;20103;-45
2021/08/12 03:45:46;;;;;;;10.75;7.30;;;;;;;;;;5032692;28;20033;-48
2021/08/12 03:48:13;;;;;;;11.65;7.10;;;;;;;;;;5015478;28;20073;-47
2021/08/12 03:50:40;;;;;;;11.90;7.68;;;;;;;;;;5033509;28;20045;-45
2021/08/12 03:53:07;;;;;;;11.05;7.70;;;;;;;;;;5035900;28;20124;-48
2021/08/12 03:55:33;;;;;;;10.25;7.55;;;;;;;;;;5033129;28;20068;-48
2021/08/12 03:58:00;;;;;;;9.57;7.55;;;;;;;;;;5034838;28;20042;-51
2021/08/12 04:00:27;;;;;;;13.60;7.75;;;;;;;;;;5034466;28;20125;-48
2021/08/12 04:02:54;;;;;;;11.25;7.57;;;;;;;;;;5034092;28;20037;-49
2021/08/12 04:05:22;;;;;;;9.80;6.90;;;;;;;;;;5030978;28;20073;-48
2021/08/12 04:07:49;;;;;;;10.98;7.18;;;;;;;;;;5025480;28;20041;-46
2021/08/12 04:10:19;;;;;;;12.18;7.60;;;;;;;;;;5016483;28;20069;-48
2021/08/12 04:12:47;;;;;;;13.07;8.13;;;;;;;;;;5014393;28;20074;-48
2021/08/12 04:15:14;;;;;;;13.32;9.10;;;;;;;;;;5014321;28;20053;-48
2021/08/12 04:17:41;;;;;;;12.15;8.00;;;;;;;;;;5016014;28;20042;-46
2021/08/12 04:20:08;;;;;;;12.25;8.10;;;;;;;;;;5026451;28;20054;-45
2021/08/12 04:22:36;;;;;;;10.40;7.82;;;;;;;;;;5031027;28;20065;-44
2021/08/12 04:25:03;;;;;;;13.23;8.43;;;;;;;;;;5019121;28;20483;-49
2021/08/12 04:27:30;;;;;;;12.27;7.88;;;;;;;;;;5014085;28;20063;-46
2021/08/12 04:29:56;;;;;;;9.70;7.70;;;;;;;;;;5014643;28;20042;-46
2021/08/12 04:32:24;;;;;;;14.88;8.93;;;;;;;;;;5014405;28;20491;-43
2021/08/12 04:34:51;;;;;;;13.82;7.38;;;;;;;;;;5024056;28;20034;-46
2021/08/12 04:37:19;;;;;;;13.55;8.68;;;;;;;;;;5033717;28;20112;-44
2021/08/12 04:39:45;;;;;;;10.88;8.45;;;;;;;;;;5028630;28;20072;-48
2021/08/12 04:42:12;;;;;;;10.70;8.13;;;;;;;;;;5015531;28;20460;-46
2021/08/12 04:44:39;;;;;;;16.00;8.55;;;;;;;;;;5022359;28;20034;-45
2021/08/12 04:47:07;;;;;;;11.43;8.40;;;;;;;;;;5025490;28;20112;-48
2021/08/12 04:49:33;;;;;;;11.57;8.02;;;;;;;;;;5004638;28;20069;-47
2021/08/12 04:52:00;;;;;;;9.45;7.70;;;;;;;;;;5034989;28;20163;-45
2021/08/12 04:54:28;;;;;;;12.95;8.02;;;;;;;;;;5031808;28;20038;-45
2021/08/12 04:56:56;;;;;;;10.13;8.20;;;;;;;;;;5033391;28;20407;-46
2021/08/12 04:59:22;;;;;;;9.93;7.82;;;;;;;;;;5049828;28;20115;-49
2021/08/12 05:01:52;;;;;;;10.18;8.43;;;;;;;;;;5044156;28;20049;-45
2021/08/12 05:04:19;;;;;;;11.02;7.88;;;;;;;;;;5022522;28;20503;-46
2021/08/12 05:06:46;;;;;;;13.57;8.73;;;;;;;;;;5026127;28;20103;-45
2021/08/12 05:09:13;;;;;;;11.63;8.40;;;;;;;;;;5029062;28;20430;-47
2021/08/12 05:11:41;;;;;;;12.52;8.70;;;;;;;;;;5018284;28;20119;-47
2021/08/12 05:14:08;;;;;;;12.90;9.32;;;;;;;;;;5012738;28;20038;-47
2021/08/12 05:16:35;;;;;;;11.25;8.27;;;;;;;;;;5045007;28;20103;-47
2021/08/12 05:19:02;;;;;;;16.58;9.38;;;;;;;;;;5014746;28;20061;-48
2021/08/12 05:21:29;;;;;;;13.55;8.85;;;;;;;;;;5029015;28;20124;-47
2021/08/12 05:23:56;;;;;;;13.05;8.57;;;;;;;;;;5049315;28;20049;-45
2021/08/12 05:26:23;;;;;;;13.23;8.75;;;;;;;;;;5030686;28;20045;-47
2021/08/12 05:28:50;;;;;;;15.18;9.40;;;;;;;;;;5033001;28;20041;-47
2021/08/12 05:31:17;;;;;;;14.90;9.02;;;;;;;;;;5016344;28;20177;-47
2021/08/12 05:33:44;;;;;;;10.88;8.13;;;;;;;;;;5016924;28;20064;-47
2021/08/12 05:36:11;;;;;;;15.93;9.27;;;;;;;;;;5031927;28;20045;-46
2021/08/12 05:38:38;;;;;;;15.18;9.70;;;;;;;;;;5028234;28;20088;-46
2021/08/12 05:41:05;;;;;;;13.27;9.45;;;;;;;;;;4984779;28;20065;-46
2021/08/12 05:43:32;;;;;;;15.15;9.45;;;;;;;;;;5022067;28;20509;-48
2021/08/12 05:46:02;;;;;;;13.00;8.45;;;;;;;;;;5020261;28;20037;-48
2021/08/12 05:48:30;;;;;;;14.98;8.93;;;;;;;;;;5039282;28;20510;-45
2021/08/12 05:50:57;;;;;;;15.15;9.25;;;;;;;;;;5000370;28;20080;-50
2021/08/12 05:53:25;;;;;;;16.70;9.98;;;;;;;;;;5032296;28;20124;-44
2021/08/12 05:55:52;;;;;;;13.20;8.93;;;;;;;;;;5021412;28;20050;-48
2021/08/12 05:58:19;;;;;;;12.98;9.63;;;;;;;;;;5012616;28;20076;-45
2021/08/12 06:00:47;;;;;;;11.55;9.10;;;;;;;;;;5016119;28;20034;-45
2021/08/12 06:03:14;;;;;;;14.70;9.30;;;;;;;;;;5023970;28;20038;-49
2021/08/12 06:05:42;;;;;;;15.50;9.30;;;;;;;;;;5028021;28;20065;-46
2021/08/12 06:08:11;;;;;;;12.18;9.70;;;;;;;;;;5025966;28;20033;-48
2021/08/12 06:10:40;;;;;;;14.27;9.82;;;;;;;;;;5020812;28;20141;-48
2021/08/12 06:13:07;;;;;;;14.85;10.23;;;;;;;;;;5028151;28;20076;-50
2021/08/12 06:15:35;;;;;;;12.13;9.63;;;;;;;;;;5013615;28;20060;-46
2021/08/12 06:18:07;;;;;;;18.02;9.80;;;;;;;;;;5020433;28;20072;-49
2021/08/12 06:20:34;;;;;;;13.05;9.70;;;;;;;;;;5025702;28;20033;-44
2021/08/12 06:23:05;;;;;;;15.15;10.07;;;;;;;;;;5032190;28;20388;-49
2021/08/12 06:25:36;;;;;;;16.15;10.68;;;;;;;;;;5022810;28;20048;-45
2021/08/12 06:28:03;;;;;;;17.63;9.88;;;;;;;;;;5029788;28;20406;-46
2021/08/12 06:30:31;;;;;;;14.40;10.07;;;;;;;;;;5019971;28;20124;-45
2021/08/12 06:32:59;;;;;;;13.45;9.60;;;;;;;;;;5023470;28;20046;-44
2021/08/12 06:35:32;;;;;;;12.70;10.23;;;;;;;;;;5021183;28;20060;-45
2021/08/12 06:37:59;;;;;;;16.38;10.25;;;;;;;;;;5028118;28;20042;-46
2021/08/12 06:40:26;;;;;;;14.65;9.95;;;;;;;;;;5022724;28;20475;-45
2021/08/12 06:42:53;;;;;;;14.38;10.27;;;;;;;;;;5042460;28;20065;-47
2021/08/12 06:45:21;;;;;;;13.43;10.02;;;;;;;;;;5014488;28;20046;-46
2021/08/12 06:47:50;;;;;;;12.95;9.00;;;;;;;;;;5021582;28;20041;-48
2021/08/12 06:50:21;;;;;;;15.43;10.13;;;;;;;;;;5024121;28;20045;-44
2021/08/12 06:52:49;;;;;;;14.82;10.88;;;;;;;;;;5022259;28;20056;-47
2021/08/12 06:55:16;;;;;;;16.70;10.30;;;;;;;;;;5026497;28;20034;-45
2021/08/12 06:57:43;;;;;;;13.52;9.30;;;;;;;;;;5011689;28;20115;-45
2021/08/12 07:00:11;;;;;;;12.57;9.52;;;;;;;;;;5026914;28;20084;-45
2021/08/12 07:02:39;;;;;;;14.77;9.70;;;;;;;;;;5011014;28;20050;-48
2021/08/12 07:05:07;;;;;;;16.23;9.13;;;;;;;;;;5012882;28;20065;-46
2021/08/12 07:07:36;;;;;;;18.70;10.02;;;;;;;;;;5031242;28;20092;-48
2021/08/12 07:10:05;;;;;;;15.27;9.95;;;;;;;;;;5024608;28;20037;-45
2021/08/12 07:12:33;;;;;;;10.98;9.45;;;;;;;;;;5014556;28;20506;-45
2021/08/12 07:15:00;;;;;;;13.52;9.63;;;;;;;;;;5016192;28;20050;-45
2021/08/12 07:17:28;;;;;;;14.70;8.90;;;;;;;;;;5018267;28;20038;-46
2021/08/12 07:19:56;;;;;;;16.13;9.38;;;;;;;;;;5018710;28;20050;-46
2021/08/12 07:22:23;;;;;;;12.98;8.07;;;;;;;;;;5021382;28;20121;-44
2021/08/12 07:24:50;;;;;;;11.85;8.50;;;;;;;;;;5014817;28;20038;-44
2021/08/12 07:27:18;;;;;;;13.98;8.38;;;;;;;;;;5027733;28;20068;-45
2021/08/12 07:29:46;;;;;;;15.00;9.13;;;;;;;;;;5020645;28;20100;-46
2021/08/12 07:32:13;;;;;;;11.70;8.55;;;;;;;;;;5032430;28;20082;-45
2021/08/12 07:34:45;;;;;;;12.40;8.30;;;;;;;;;;5023954;28;20056;-47
2021/08/12 07:37:12;;;;;;;10.18;8.10;;;;;;;;;;5024627;28;20034;-46
2021/08/12 07:39:39;;;;;;;13.73;8.73;;;;;;;;;;5027473;28;20104;-45
2021/08/12 07:42:06;;;;;;;11.50;8.38;;;;;;;;;;5040558;28;20041;-44
2021/08/12 07:44:33;;;;;;;11.35;8.65;;;;;;;;;;5021240;28;20194;-44
2021/08/12 07:47:00;;;;;;;10.07;8.48;;;;;;;;;;5019169;28;20045;-45
2021/08/12 07:49:27;;;;;;;11.30;8.30;;;;;;;;;;5006968;28;20046;-44
2021/08/12 07:51:54;;;;;;;11.68;7.90;;;;;;;;;;5022797;28;20498;-45
2021/08/12 07:54:21;;;;;;;13.70;8.57;;;;;;;;;;5023771;28;20144;-48
2021/08/12 07:56:48;;;;;;;12.90;8.38;;;;;;;;;;5011064;28;20126;-45
2021/08/12 07:59:15;;;;;;;11.55;8.10;;;;;;;;;;5012382;28;20113;-46
2021/08/12 08:01:42;;;;;;;11.30;8.10;;;;;;;;;;5019361;28;20458;-46
2021/08/12 08:04:09;;;;;;;10.73;8.40;;;;;;;;;;5014612;28;20068;-47
2021/08/12 08:06:36;;;;;;;11.15;8.30;;;;;;;;;;5017461;28;20102;-45
2021/08/12 08:09:03;;;;;;;11.30;8.00;;;;;;;;;;5020567;28;20038;-45
2021/08/12 08:11:31;;;;;;;12.35;8.48;;;;;;;;;;5032677;28;20049;-46
2021/08/12 08:13:58;;;;;;;13.02;7.85;;;;;;;;;;5028526;28;20096;-48
2021/08/12 08:16:27;;;;;;;11.73;8.48;;;;;;;;;;5025577;28;20050;-46
2021/08/12 08:18:54;;;;;;;11.15;8.00;;;;;;;;;;5024587;28;20051;-47
2021/08/12 08:21:20;;;;;;;11.38;7.55;;;;;;;;;;5032030;28;20088;-46
2021/08/12 08:23:47;;;;;;;11.13;7.68;;;;;;;;;;5033710;28;20099;-46
2021/08/12 08:26:14;;;;;;;10.90;7.85;;;;;;;;;;5026090;28;20066;-47
2021/08/12 08:28:41;;;;;;;9.45;8.10;;;;;;;;;;5025145;28;20477;-48
2021/08/12 08:31:08;;;;;;;12.45;8.55;;;;;;;;;;5027977;28;20118;-50
2021/08/12 08:33:35;;;;;;;12.45;8.02;;;;;;;;;;5022637;28;20447;-46
2021/08/12 08:36:03;;;;;;;10.45;7.78;;;;;;;;;;5029416;28;20072;-50
2021/08/12 08:38:30;;;;;;;11.05;8.00;;;;;;;;;;5028995;28;20208;-48
2021/08/12 08:40:57;;;;;;;9.80;7.68;;;;;;;;;;5029085;28;20422;-50
2021/08/12 08:43:24;;;;;;;9.50;7.32;;;;;;;;;;5028536;28;20040;-49
2021/08/12 08:45:52;;;;;;;9.73;7.63;;;;;;;;;;5027574;28;20036;-48
2021/08/12 08:48:19;;;;;;;10.68;8.15;;;;;;;;;;5027412;28;20063;-50
2021/08/12 08:50:46;;;;;;;10.27;7.85;;;;;;;;;;5029183;28;20105;-45
2021/08/12 08:53:16;;;;;;;10.48;7.78;;;;;;;;;;5028712;28;20064;-44
2021/08/12 08:55:44;;;;;;;11.70;7.80;;;;;;;;;;5026529;28;20041;-45
2021/08/12 08:58:11;;;;;;;13.40;7.95;;;;;;;;;;5027931;28;20073;-45
2021/08/12 09:00:38;;;;;;;10.15;7.93;;;;;;;;;;5028964;28;20133;-45
2021/08/12 09:03:05;;;;;;;10.63;7.63;;;;;;;;;;5028862;28;20378;-46
2021/08/12 09:05:33;;;;;;;11.27;7.82;;;;;;;;;;5027360;28;20041;-46
2021/08/12 09:08:00;;;;;;;12.23;8.38;;;;;;;;;;5026863;28;20033;-47
2021/08/12 09:10:27;;;;;;;12.40;8.63;;;;;;;;;;5028002;28;20037;-44
2021/08/12 09:12:54;;;;;;;10.05;7.72;;;;;;;;;;5025506;28;20511;-44
2021/08/12 09:15:21;;;;;;;11.00;8.10;;;;;;;;;;5028131;28;20034;-44
2021/08/12 09:17:49;;;;;;;9.95;7.50;;;;;;;;;;5027131;28;20041;-44
2021/08/12 09:20:18;;;;;;;13.90;8.20;;;;;;;;;;5028788;28;20133;-47
2021/08/12 09:22:50;;;;;;;12.05;7.55;;;;;;;;;;5026681;28;20045;-45
2021/08/12 09:25:28;;;;;;;11.32;7.28;;;;;;;;;;5027582;28;20068;-44
2021/08/12 09:28:13;;;;;;;10.73;7.95;;;;;;;;;;5027465;28;20049;-45
2021/08/12 09:30:41;;;;;;;12.07;8.38;;;;;;;;;;5028033;28;20099;-47
2021/08/12 09:33:12;;;;;;;11.80;8.38;;;;;;;;;;5027647;28;20053;-48
2021/08/12 09:35:39;;;;;;;12.73;9.32;;;;;;;;;;5027575;28;20069;-44
2021/08/12 09:38:08;;;;;;;13.30;8.95;;;;;;;;;;5026784;28;20048;-47
2021/08/12 09:40:36;;;;;;;13.65;7.88;;;;;;;;;;5027535;28;20371;-46
2021/08/12 09:43:04;;;;;;;10.95;8.38;;;;;;;;;;5019702;28;20069;-46
2021/08/12 09:45:32;;;;;;;11.27;7.80;;;;;;;;;;5020651;28;20132;-47
2021/08/12 09:48:14;;;;;;;9.95;7.70;;;;;;;;;;5024674;28;20049;-45
2021/08/12 09:50:42;;;;;;;9.68;7.65;;;;;;;;;;5023554;28;20061;-46
2021/08/12 09:53:17;;;;;;;12.25;8.32;;;;;;;;;;5030281;28;20132;-46
2021/08/12 09:55:44;;;;;;;9.15;7.47;;;;;;;;;;5025806;28;20053;-44
2021/08/12 09:58:12;;;;;;;10.25;7.45;;;;;;;;;;5011549;28;20053;-45
2021/08/12 10:00:39;;;;;;;9.43;7.53;;;;;;;;;;5027314;28;20454;-44
2021/08/12 10:03:23;;;;;;;12.57;7.53;;;;;;;;;;5017311;28;20050;-47
2021/08/12 10:05:51;;;;;;;7.97;6.78;;;;;;;;;;5027260;28;20052;-46
2021/08/12 10:08:44;;;;;;;10.60;7.07;;;;;;;;;;5023525;28;20061;-46
2021/08/12 10:11:10;;;;;;;;;;;;;;;;;;5015038;28;20148;-43
2021/08/12 10:13:37;;;;;;;9.43;7.60;;;;;;;;;;5024438;28;20365;-45
2021/08/12 10:16:04;;;;;;;10.35;7.22;;;;;;;;;;5023987;28;20065;-44
2021/08/12 10:18:31;;;;;;;9.68;7.00;;;;;;;;;;5014198;28;20046;-46
2021/08/12 10:20:58;;;;;;;9.32;7.43;;;;;;;;;;5027529;28;20096;-45
2021/08/12 10:23:31;;;;;;;9.40;6.85;;;;;;;;;;5028370;28;20411;-46
2021/08/12 10:26:01;;;;;;;10.38;7.63;;;;;;;;;;5012998;28;20423;-44
2021/08/12 10:28:28;;;;;;;9.98;7.50;;;;;;;;;;5027035;28;20063;-43
2021/08/12 10:30:55;;;;;;;9.07;7.10;;;;;;;;;;5027207;28;20483;-43
2021/08/12 10:33:24;;;;;;;9.45;6.72;;;;;;;;;;5018161;28;20049;-46
2021/08/12 10:35:51;;;;;;;10.88;7.60;;;;;;;;;;5028578;28;20621;-42
2021/08/12 10:38:18;;;;;;;9.52;7.38;;;;;;;;;;5029387;28;20061;-45
2021/08/12 10:40:47;;;;;;;9.57;6.78;;;;;;;;;;5026132;28;20076;-43
2021/08/12 10:43:18;;;;;;;9.77;7.10;;;;;;;;;;5016063;28;20133;-43
2021/08/12 10:45:58;;;;;;;8.65;7.30;;;;;;;;;;5017245;28;20462;-45
2021/08/12 10:48:28;;;;;;;9.48;6.85;;;;;;;;;;5017204;28;20034;-45
2021/08/12 10:51:01;;;;;;;10.27;7.15;;;;;;;;;;5011559;28;20042;-42
2021/08/12 10:53:29;;;;;;;9.18;7.32;;;;;;;;;;5023588;28;20061;-44
2021/08/12 10:56:00;;;;;;;11.50;7.38;;;;;;;;;;5024310;28;20510;-47
2021/08/12 10:58:28;;;;;;;12.80;7.10;;;;;;;;;;5022230;28;20405;-46
2021/08/12 11:00:56;;;;;;;8.55;7.07;;;;;;;;;;5029294;28;20045;-45
2021/08/12 11:03:32;;;;;;;12.95;7.07;;;;;;;;;;5017885;28;20038;-46
2021/08/12 11:06:08;;;;;;;11.93;7.18;;;;;;;;;;5019160;28;20121;-45
2021/08/12 11:08:48;;;;;;;13.70;7.65;;;;;;;;;;5020594;28;20125;-44
2021/08/12 11:11:34;;;;;;;9.20;7.25;;;;;;;;;;5023031;28;20072;-47
2021/08/12 11:14:03;;;;;;;12.50;7.03;;;;;;;;;;5017009;28;20058;-46
2021/08/12 11:16:42;;;;;;;7.90;6.88;;;;;;;;;;5019206;28;20137;-42
2021/08/12 11:19:29;;;;;;;11.65;7.53;;;;;;;;;;5023331;28;20042;-44
2021/08/12 11:21:56;;;;;;;10.13;6.88;;;;;;;;;;5015224;28;20073;-45
2021/08/12 11:24:23;;;;;;;10.15;6.75;;;;;;;;;;5025599;28;20069;-43
2021/08/12 11:26:51;;;;;;;9.27;7.50;;;;;;;;;;5014861;28;20140;-46
2021/08/12 11:29:36;;;;;;;7.57;6.78;;;;;;;;;;5030805;28;20088;-43
2021/08/12 11:32:07;;;;;;;8.88;7.22;;;;;;;;;;5019564;28;20132;-43
2021/08/12 11:34:34;;;;;;;10.93;7.20;;;;;;;;;;5019932;28;20050;-42
2021/08/12 11:37:12;;;;;;;10.40;6.70;;;;;;;;;;5030706;28;20057;-44
2021/08/12 11:39:57;;;;;;;9.85;6.82;;;;;;;;;;5019019;28;20458;-43
2021/08/12 11:42:25;;;;;;;8.00;6.85;;;;;;;;;;5014571;28;20125;-46
2021/08/12 11:44:55;;;;;;;7.78;6.90;;;;;;;;;;5021433;28;20061;-45
2021/08/12 11:47:22;;;;;;;8.40;6.50;;;;;;;;;;5019690;28;20038;-46
2021/08/12 11:49:50;;;;;;;8.82;6.70;;;;;;;;;;5027847;28;20136;-48
2021/08/12 11:52:22;;;;;;;9.32;6.80;;;;;;;;;;5024826;28;20395;-44
2021/08/12 11:55:00;;;;;;;7.80;5.95;;;;;;;;;;5031223;28;20403;-44
2021/08/12 11:57:42;;;;;;;9.55;6.47;;;;;;;;;;5019773;28;20046;-46
2021/08/12 12:00:11;;;;;;;8.85;6.30;;;;;;;;;;5024056;28;20072;-47
2021/08/12 12:02:46;;;;;;;9.20;6.57;;;;;;;;;;5031840;28;20148;-49
2021/08/12 12:05:14;;;;;;;9.10;6.63;;;;;;;;;;5025321;28;20099;-47
2021/08/12 12:07:48;;;;;;;7.72;6.80;;;;;;;;;;5021019;28;20037;-46
2021/08/12 12:10:23;;;;;;;8.45;6.68;;;;;;;;;;5030091;28;20046;-45
2021/08/12 12:12:50;;;;;;;8.77;6.50;;;;;;;;;;5022096;28;20069;-47
2021/08/12 12:15:37;;;;;;;11.48;7.32;;;;;;;;;;5019897;28;20052;-46
2021/08/12 12:18:04;;;;;;;8.35;6.78;;;;;;;;;;5029045;28;20038;-46
2021/08/12 12:20:31;;;;;;;8.00;6.80;;;;;;;;;;5031662;28;20049;-45
2021/08/12 12:23:02;;;;;;;7.97;6.93;;;;;;;;;;5028855;28;20034;-45
2021/08/12 12:25:30;;;;;;;7.53;6.27;;;;;;;;;;5020450;28;20389;-46
2021/08/12 12:27:57;;;;;;;7.80;6.00;;;;;;;;;;5021346;28;20354;-43
2021/08/12 12:30:25;;;;;;;12.23;6.28;;;;;;;;;;5033863;28;20038;-43
2021/08/12 12:32:57;;;;;;;9.98;6.38;;;;;;;;;;5028783;28;20479;-43
2021/08/12 12:35:25;;;;;;;8.20;6.38;;;;;;;;;;5026094;28;20103;-44
2021/08/12 12:37:52;;;;;;;9.50;7.43;;;;;;;;;;5029408;28;20407;-44
2021/08/12 12:40:20;;;;;;;7.50;6.70;;;;;;;;;;5014355;28;20471;-45
2021/08/12 12:42:51;;;;;;;9.45;6.78;;;;;;;;;;5022330;28;20172;-48
2021/08/12 12:45:23;;;;;;;8.73;6.60;;;;;;;;;;5015797;28;20124;-46
2021/08/12 12:47:50;;;;;;;9.60;6.50;;;;;;;;;;5013861;28;20061;-46
2021/08/12 12:50:19;;;;;;;8.43;6.72;;;;;;;;;;5016360;28;20104;-48
2021/08/12 12:52:53;;;;;;;9.13;6.47;;;;;;;;;;5028793;28;20081;-44
2021/08/12 12:55:21;;;;;;;8.77;6.97;;;;;;;;;;5023033;28;20046;-47
2021/08/12 12:57:48;;;;;;;9.35;6.95;;;;;;;;;;5026343;28;20163;-46
2021/08/12 13:00:26;;;;;;;8.30;6.82;;;;;;;;;;5032998;28;20049;-44
2021/08/12 13:02:54;;;;;;;8.90;6.03;;;;;;;;;;5021194;28;20042;-47
2021/08/12 13:05:22;;;;;;;7.88;6.40;;;;;;;;;;5016540;28;20042;-47
2021/08/12 13:07:49;;;;;;;8.23;6.57;;;;;;;;;;5012709;28;20046;-46
2021/08/12 13:10:16;;;;;;;8.18;6.65;;;;;;;;;;5025201;28;20055;-46
2021/08/12 13:12:55;;;;;;;9.73;6.97;;;;;;;;;;5028553;28;20045;-45
2021/08/12 13:15:21;;;;;;;8.02;6.18;;;;;;;;;;5030459;28;20052;-49
2021/08/12 13:17:55;;;;;;;9.82;6.50;;;;;;;;;;5025830;28;20041;-46
2021/08/12 13:20:22;;;;;;;8.95;6.80;;;;;;;;;;5024163;28;20068;-43
2021/08/12 13:22:54;;;;;;;9.32;6.32;;;;;;;;;;5018837;28;20137;-45
2021/08/12 13:25:25;;;;;;;8.75;6.68;;;;;;;;;;5019960;28;20038;-47
2021/08/12 13:27:53;;;;;;;8.27;6.82;;;;;;;;;;5019235;28;20104;-44
2021/08/12 13:30:26;;;;;;;9.70;7.95;;;;;;;;;;5017441;28;20045;-45
2021/08/12 13:32:54;;;;;;;8.88;6.88;;;;;;;;;;5016676;28;20050;-47
2021/08/12 13:35:20;;;;;;;8.20;6.38;;;;;;;;;;5030618;28;20128;-45
2021/08/12 13:37:47;;;;;;;7.68;6.40;;;;;;;;;;5023871;28;20121;-47
2021/08/12 13:40:14;;;;;;;8.68;6.55;;;;;;;;;;5020824;28;20048;-47
2021/08/12 13:42:40;;;;;;;9.13;6.70;;;;;;;;;;5021391;28;20042;-46
2021/08/12 13:45:08;;;;;;;8.02;7.00;;;;;;;;;;5020962;28;20490;-43
2021/08/12 13:47:34;;;;;;;8.13;6.72;;;;;;;;;;5021389;28;20049;-45
2021/08/12 13:50:01;;;;;;;7.38;6.47;;;;;;;;;;5026963;28;20041;-46
2021/08/12 13:52:28;;;;;;;8.43;6.63;;;;;;;;;;5027031;28;20046;-48
2021/08/12 13:54:55;;;;;;;7.88;6.32;;;;;;;;;;5023948;28;20469;-45
2021/08/12 13:57:22;;;;;;;8.77;7.07;;;;;;;;;;5020621;28;20525;-44
2021/08/12 13:59:49;;;;;;;9.32;6.45;;;;;;;;;;5028900;28;20048;-47
2021/08/12 14:02:16;;;;;;;9.38;6.78;;;;;;;;;;5018451;28;20069;-47
2021/08/12 14:04:42;;;;;;;8.05;6.75;;;;;;;;;;5011971;28;20030;-48
2021/08/12 14:07:09;;;;;;;9.77;6.68;;;;;;;;;;5029245;28;20053;-49
2021/08/12 14:09:36;;;;;;;13.40;6.80;;;;;;;;;;5022880;28;20076;-49
2021/08/12 14:12:03;;;;;;;8.07;6.30;;;;;;;;;;5022400;28;20521;-45
2021/08/12 14:14:30;;;;;;;9.93;6.80;;;;;;;;;;5022341;28;20111;-45
2021/08/12 14:16:57;;;;;;;8.85;7.15;;;;;;;;;;5017700;28;20483;-46
2021/08/12 14:19:24;;;;;;;9.55;6.57;;;;;;;;;;5025163;28;20419;-44
2021/08/12 14:21:50;;;;;;;10.40;7.20;;;;;;;;;;5023927;28;20037;-46
2021/08/12 14:24:17;;;;;;;10.23;6.78;;;;;;;;;;5020503;28;20044;-46
2021/08/12 14:26:44;;;;;;;8.05;6.57;;;;;;;;;;5025416;28;20038;-47
2021/08/12 14:29:11;;;;;;;7.90;6.88;;;;;;;;;;5023480;28;20100;-45
2021/08/12 14:31:40;;;;;;;10.27;6.72;;;;;;;;;;5019277;28;20056;-45
2021/08/12 14:34:08;;;;;;;9.63;6.88;;;;;;;;;;5022696;28;20073;-46
2021/08/12 14:36:36;;;;;;;7.53;6.72;;;;;;;;;;5018532;28;20103;-44
2021/08/12 14:39:05;;;;;;;8.35;6.55;;;;;;;;;;5022725;28;20518;-44
2021/08/12 14:41:32;;;;;;;8.63;6.68;;;;;;;;;;5024140;28;20041;-44
2021/08/12 14:43:59;;;;;;;8.27;6.35;;;;;;;;;;5016865;28;20046;-49
2021/08/12 14:46:26;;;;;;;9.35;6.85;;;;;;;;;;5019922;28;20291;-50